createdAt,value
2023-09-06T00:01:50.614Z,22.57
2023-09-06T00:03:53.675Z,22.51
2023-09-06T00:05:53.862Z,22.48
2023-09-06T00:07:25.716Z,22.47
2023-09-06T00:08:55.622Z,22.44
2023-09-06T00:10:26.564Z,22.43
2023-09-06T00:15:14.387Z,22.30
2023-09-06T00:16:45.211Z,22.28
2023-09-06T00:19:08.132Z,22.20
2023-09-06T00:21:08.812Z,22.15
2023-09-06T00:22:38.683Z,22.11
2023-09-06T00:24:09.834Z,22.08
2023-09-06T00:26:17.956Z,22.10
2023-09-06T00:29:46.364Z,21.96
2023-09-06T00:32:20.843Z,21.93
2023-09-06T00:33:47.808Z,21.91
2023-09-06T00:35:36.433Z,21.85
2023-09-06T00:37:05.397Z,21.83
2023-09-06T00:38:35.415Z,21.79
2023-09-06T00:40:06.513Z,21.77
2023-09-06T00:42:58.428Z,21.72
2023-09-06T00:46:03.893Z,21.67
2023-09-06T00:48:21.086Z,21.62
2023-09-06T00:51:11.018Z,21.57
2023-09-06T00:52:43.475Z,21.55
2023-09-06T00:54:12.920Z,21.54
2023-09-06T00:56:01.279Z,21.52
2023-09-06T01:00:56.268Z,21.45
2023-09-06T01:03:30.233Z,21.40
2023-09-06T01:05:32.993Z,21.40
2023-09-06T01:06:32.741Z,21.39
2023-09-06T01:07:33.948Z,21.39
2023-09-06T01:08:32.731Z,21.39
2023-09-06T01:11:01.799Z,21.35
2023-09-06T01:13:21.254Z,21.29
2023-09-06T01:14:50.149Z,21.29
2023-09-06T01:18:00.679Z,21.22
2023-09-06T01:19:29.812Z,21.21
2023-09-06T01:23:25.947Z,21.17
2023-09-06T01:25:57.504Z,21.11
2023-09-06T01:27:29.255Z,21.09
2023-09-06T01:34:40.628Z,21.00
2023-09-06T01:36:39.488Z,20.96
2023-09-06T01:40:03.806Z,20.96
2023-09-06T01:42:34.261Z,20.93
2023-09-06T01:44:56.668Z,20.93
2023-09-06T01:48:13.629Z,20.90
2023-09-06T01:50:15.195Z,20.90
2023-09-06T01:52:12.634Z,20.88
2023-09-06T01:57:07.871Z,20.88
2023-09-06T02:01:02.258Z,20.93
2023-09-06T02:04:51.924Z,20.99
2023-09-06T02:06:50.877Z,20.99
2023-09-06T02:08:52.639Z,20.99
2023-09-06T02:11:30.436Z,21.00
2023-09-06T02:13:27.533Z,21.02
2023-09-06T02:17:44.945Z,21.00
2023-09-06T02:21:25.167Z,20.97
2023-09-06T02:26:21.990Z,20.97
2023-09-06T02:30:46.383Z,20.93
2023-09-06T02:33:29.392Z,20.93
2023-09-06T02:36:54.503Z,20.92
2023-09-06T02:38:29.169Z,20.90
2023-09-06T02:40:00.706Z,20.92
2023-09-06T02:42:06.350Z,20.90
2023-09-06T02:46:12.704Z,20.87
2023-09-06T02:48:17.600Z,20.87
2023-09-06T02:50:20.106Z,20.85
2023-09-06T02:55:01.300Z,20.81
2023-09-06T02:57:29.753Z,20.81
2023-09-06T02:58:58.817Z,20.81
2023-09-06T03:00:29.520Z,20.80
2023-09-06T03:08:09.611Z,20.69
2023-09-06T03:10:58.868Z,20.66
2023-09-06T03:12:28.762Z,20.63
2023-09-06T03:15:22.266Z,20.62
2023-09-06T03:17:18.966Z,20.60
2023-09-06T03:19:12.793Z,20.59
2023-09-06T03:23:17.238Z,20.52
2023-09-06T03:24:47.405Z,20.51
2023-09-06T03:30:06.948Z,20.47
2023-09-06T03:32:05.929Z,20.47
2023-09-06T03:36:01.581Z,20.41
2023-09-06T03:38:01.439Z,20.39
2023-09-06T03:42:15.547Z,20.36
2023-09-06T03:43:46.533Z,20.32
2023-09-06T03:45:46.363Z,20.31
2023-09-06T03:47:53.351Z,20.29
2023-09-06T03:50:10.047Z,20.26
2023-09-06T03:51:41.752Z,20.25
2023-09-06T04:00:09.952Z,20.16
2023-09-06T04:01:41.915Z,20.16
2023-09-06T04:05:21.440Z,20.14
2023-09-06T04:12:16.231Z,20.07
2023-09-06T04:13:45.191Z,20.07
2023-09-06T04:18:02.500Z,20.07
2023-09-06T04:21:02.239Z,20.06
2023-09-06T04:25:28.039Z,20.04
2023-09-06T04:29:22.796Z,20.04
2023-09-06T04:33:26.061Z,20.04
2023-09-06T04:35:45.059Z,20.06
2023-09-06T04:43:22.104Z,20.06
2023-09-06T04:49:02.831Z,20.07
2023-09-06T04:51:53.658Z,20.10
2023-09-06T04:54:41.232Z,20.10
2023-09-06T04:56:40.985Z,20.10
2023-09-06T04:58:42.266Z,20.10
2023-09-06T05:00:08.242Z,20.10
2023-09-06T05:02:56.090Z,20.07
2023-09-06T05:04:26.214Z,20.07
2023-09-06T05:07:24.138Z,20.03
2023-09-06T05:09:43.765Z,20.04
2023-09-06T05:11:13.701Z,20.03
2023-09-06T05:13:34.851Z,20.02
2023-09-06T05:15:02.477Z,19.96
2023-09-06T05:17:03.356Z,19.95
2023-09-06T05:19:03.179Z,19.94
2023-09-06T05:26:23.364Z,19.85
2023-09-06T05:27:53.262Z,19.85
2023-09-06T05:29:41.232Z,19.88
2023-09-06T05:31:10.450Z,19.91
2023-09-06T05:33:09.614Z,19.94
2023-09-06T05:36:05.439Z,19.99
2023-09-06T05:38:25.502Z,19.99
2023-09-06T05:39:54.396Z,20.02
2023-09-06T05:41:24.129Z,20.02
2023-09-06T05:42:53.746Z,20.03
2023-09-06T05:45:13.618Z,20.03
2023-09-06T05:46:43.530Z,20.04
2023-09-06T05:49:03.110Z,20.06
2023-09-06T05:54:53.932Z,20.14
2023-09-06T06:00:58.689Z,20.29
2023-09-06T06:03:29.813Z,20.36
2023-09-06T06:06:29.826Z,20.50
2023-09-06T06:08:30.799Z,20.56
2023-09-06T06:15:15.557Z,20.88
2023-09-06T06:19:54.490Z,21.03
2023-09-06T06:23:24.854Z,21.06
2023-09-06T06:24:22.989Z,21.11
2023-09-06T06:25:22.946Z,21.11
2023-09-06T06:26:22.909Z,21.12
2023-09-06T06:27:52.969Z,21.18
2023-09-06T06:29:53.642Z,21.20
2023-09-06T06:37:22.566Z,21.43
2023-09-06T06:38:51.950Z,21.51
2023-09-06T06:40:21.894Z,21.57
2023-09-06T06:41:51.772Z,21.64
2023-09-06T06:44:19.529Z,21.70
2023-09-06T06:45:20.201Z,21.72
2023-09-06T06:46:40.601Z,21.76
2023-09-06T06:49:18.369Z,21.82
2023-09-06T06:52:55.835Z,21.92
2023-09-06T06:54:27.977Z,21.99
2023-09-06T06:55:25.673Z,22.02
2023-09-06T06:56:25.728Z,22.06
2023-09-06T06:58:20.618Z,22.13
2023-09-06T07:01:11.970Z,22.20
2023-09-06T07:02:42.852Z,22.25
2023-09-06T07:04:09.857Z,22.33
2023-09-06T07:06:40.421Z,22.48
2023-09-06T07:08:59.152Z,22.57
2023-09-06T07:11:50.993Z,22.65
2023-09-06T07:13:25.128Z,22.69
2023-09-06T07:14:53.652Z,22.75
2023-09-06T07:16:51.660Z,22.81
2023-09-06T07:21:23.411Z,22.93
2023-09-06T07:24:29.077Z,23.09
2023-09-06T07:28:04.735Z,23.23
2023-09-06T07:29:54.009Z,23.36
2023-09-06T07:31:23.489Z,23.40
2023-09-06T07:33:24.192Z,23.47
2023-09-06T07:34:53.861Z,23.51
2023-09-06T07:35:54.511Z,23.58
2023-09-06T07:36:53.791Z,23.61
2023-09-06T07:38:42.542Z,23.63
2023-09-06T07:40:14.338Z,23.69
2023-09-06T07:43:48.860Z,23.81
2023-09-06T07:45:20.876Z,23.84
2023-09-06T07:46:50.212Z,23.91
2023-09-06T07:49:40.911Z,24.02
2023-09-06T07:52:00.593Z,24.17
2023-09-06T07:53:31.462Z,24.23
2023-09-06T07:55:30.121Z,24.32
2023-09-06T07:57:00.305Z,24.38
2023-09-06T08:00:33.572Z,24.48
2023-09-06T08:03:48.824Z,24.65
2023-09-06T08:06:52.799Z,24.76
2023-09-06T08:08:48.873Z,24.88
2023-09-06T08:10:57.571Z,25.01
2023-09-06T08:12:28.425Z,25.04
2023-09-06T08:16:15.292Z,25.14
2023-09-06T08:19:24.382Z,25.28
2023-09-06T08:25:47.647Z,25.50
2023-09-06T08:26:46.008Z,25.50
2023-09-06T08:27:45.983Z,25.53
2023-09-06T08:29:14.832Z,25.51
2023-09-06T08:30:48.814Z,25.55
2023-09-06T08:33:47.941Z,25.70
2023-09-06T08:35:18.507Z,25.73
2023-09-06T08:38:33.525Z,25.78
2023-09-06T08:41:10.923Z,25.93
2023-09-06T08:45:36.221Z,26.06
2023-09-06T08:49:03.263Z,26.07
2023-09-06T08:53:06.780Z,26.22
2023-09-06T08:54:27.989Z,26.25
2023-09-06T08:57:36.292Z,26.26
2023-09-06T08:58:36.932Z,26.29
2023-09-06T08:59:36.481Z,26.34
2023-09-06T09:03:51.386Z,26.41
2023-09-06T09:06:11.954Z,26.47
2023-09-06T09:10:30.475Z,26.59
2023-09-06T09:12:00.440Z,26.65
2023-09-06T09:14:19.259Z,26.71
2023-09-06T09:18:07.268Z,26.75
2023-09-06T09:22:58.359Z,27.03
2023-09-06T09:38:54.902Z,27.39
2023-09-06T09:41:59.547Z,27.55
2023-09-06T09:43:45.597Z,27.55
2023-09-06T09:45:17.514Z,27.64
2023-09-06T09:47:31.304Z,27.71
2023-09-06T09:51:03.480Z,27.78
2023-09-06T09:52:30.774Z,27.82
2023-09-06T09:58:36.244Z,28.00
2023-09-06T10:01:33.461Z,28.05
2023-09-06T10:03:04.364Z,28.10
2023-09-06T10:04:34.444Z,28.15
2023-09-06T10:06:34.333Z,28.29
2023-09-06T10:11:59.611Z,28.45
2023-09-06T10:14:18.054Z,28.64
2023-09-06T10:17:09.889Z,28.79
2023-09-06T10:23:46.282Z,28.91
2023-09-06T10:25:35.141Z,29.05
2023-09-06T10:27:26.769Z,29.16
2023-09-06T10:29:58.101Z,29.26
2023-09-06T10:35:06.186Z,29.57
2023-09-06T10:36:37.705Z,29.69
2023-09-06T10:38:33.740Z,29.81
2023-09-06T10:41:14.175Z,29.93
2023-09-06T10:47:24.668Z,30.46
2023-09-06T10:50:55.144Z,30.75
2023-09-06T10:52:44.009Z,30.94
2023-09-06T10:56:29.810Z,31.15
2023-09-06T11:00:29.635Z,31.49
2023-09-06T11:03:17.436Z,31.70
2023-09-06T11:05:18.184Z,31.90
2023-09-06T11:08:54.643Z,32.16
2023-09-06T11:14:00.798Z,32.31
2023-09-06T11:18:43.264Z,32.55
2023-09-06T11:23:11.052Z,32.90
2023-09-06T11:26:25.015Z,33.28
2023-09-06T11:28:31.094Z,33.34
2023-09-06T11:30:06.243Z,33.45
2023-09-06T11:32:52.877Z,33.50
2023-09-06T11:34:44.920Z,33.59
2023-09-06T11:36:45.197Z,33.77
2023-09-06T11:39:03.388Z,33.90
2023-09-06T11:41:01.371Z,33.94
2023-09-06T11:43:21.151Z,34.16
2023-09-06T11:46:09.366Z,34.42
2023-09-06T11:49:02.102Z,34.80
2023-09-06T12:00:03.003Z,35.60
2023-09-06T12:02:54.470Z,35.70
2023-09-06T12:07:45.443Z,35.73
2023-09-06T12:09:19.159Z,35.63
2023-09-06T12:12:44.827Z,35.58
2023-09-06T12:16:16.328Z,35.60
2023-09-06T12:19:02.120Z,35.37
2023-09-06T12:21:22.623Z,35.44
2023-09-06T12:22:51.576Z,35.58
2023-09-06T12:26:07.182Z,35.66
2023-09-06T12:28:38.578Z,35.31
2023-09-06T12:30:38.166Z,35.36
2023-09-06T12:34:39.199Z,35.45
2023-09-06T12:38:49.919Z,35.85
2023-09-06T12:41:43.790Z,36.01
2023-09-06T12:42:50.696Z,36.02
2023-09-06T12:45:23.286Z,36.12
2023-09-06T12:47:54.801Z,36.20
2023-09-06T12:49:25.817Z,36.08
2023-09-06T12:54:08.735Z,35.92
2023-09-06T12:57:46.462Z,36.02
2023-09-06T13:00:35.055Z,36.24
2023-09-06T13:06:12.038Z,36.20
2023-09-06T13:08:02.145Z,36.23
2023-09-06T13:10:04.638Z,36.35
2023-09-06T13:14:09.572Z,36.35
2023-09-06T13:15:40.170Z,36.42
2023-09-06T13:18:00.137Z,36.45
2023-09-06T13:19:38.708Z,36.43
2023-09-06T13:22:24.200Z,36.21
2023-09-06T13:25:04.369Z,36.01
2023-09-06T13:32:23.219Z,36.12
2023-09-06T13:35:11.760Z,36.14
2023-09-06T13:37:50.252Z,36.12
2023-09-06T13:39:20.135Z,36.18
2023-09-06T13:41:38.968Z,36.46
2023-09-06T13:43:57.411Z,36.43
2023-09-06T13:45:59.162Z,36.55
2023-09-06T13:48:00.416Z,36.67
2023-09-06T13:50:17.331Z,36.89
2023-09-06T13:53:09.024Z,36.92
2023-09-06T13:54:40.897Z,36.89
2023-09-06T13:57:07.134Z,36.80
2023-09-06T13:58:36.160Z,36.80
2023-09-06T14:00:42.198Z,36.98
2023-09-06T14:03:09.865Z,36.93
2023-09-06T14:09:19.728Z,36.47
2023-09-06T14:14:04.041Z,36.30
2023-09-06T14:17:15.560Z,36.35
2023-09-06T14:19:36.012Z,36.36
2023-09-06T14:25:45.200Z,36.33
2023-09-06T14:27:16.191Z,36.47
2023-09-06T14:29:16.010Z,36.43
2023-09-06T14:33:34.172Z,35.93
2023-09-06T14:36:08.896Z,35.97
2023-09-06T14:39:16.549Z,35.83
2023-09-06T14:42:58.022Z,35.82
2023-09-06T14:47:06.543Z,35.56
2023-09-06T14:49:27.002Z,35.56
2023-09-06T14:52:13.735Z,35.60
2023-09-06T14:54:11.410Z,35.30
2023-09-06T14:55:41.318Z,35.23
2023-09-06T14:59:31.333Z,35.11
2023-09-06T15:02:17.229Z,34.89
2023-09-06T15:10:49.107Z,34.43
2023-09-06T15:12:20.262Z,34.36
2023-09-06T15:16:38.833Z,34.33
2023-09-06T15:18:27.028Z,34.33
2023-09-06T15:19:56.258Z,34.20
2023-09-06T15:21:56.314Z,34.21
2023-09-06T15:24:16.905Z,34.17
2023-09-06T15:26:17.733Z,34.16
2023-09-06T15:29:29.111Z,33.87
2023-09-06T15:31:26.320Z,33.89
2023-09-06T15:32:56.642Z,33.79
2023-09-06T15:35:30.660Z,33.77
2023-09-06T15:38:49.267Z,33.64
2023-09-06T15:43:14.513Z,33.74
2023-09-06T15:47:18.428Z,33.81
2023-09-06T15:49:16.953Z,33.87
2023-09-06T15:52:12.203Z,33.80
2023-09-06T15:55:02.887Z,33.73
2023-09-06T15:58:00.131Z,33.64
2023-09-06T16:01:49.326Z,33.58
2023-09-06T16:04:27.874Z,33.62
2023-09-06T16:06:57.102Z,33.64
2023-09-06T16:08:26.884Z,33.67
2023-09-06T16:09:56.195Z,33.45
2023-09-06T16:13:12.665Z,33.23
2023-09-06T16:15:15.334Z,33.27
2023-09-06T16:16:42.368Z,33.31
2023-09-06T16:21:27.066Z,33.31
2023-09-06T16:24:16.746Z,33.17
2023-09-06T16:27:13.358Z,33.12
2023-09-06T16:29:32.301Z,32.92
2023-09-06T16:32:40.382Z,32.85
2023-09-06T16:34:13.286Z,32.86
2023-09-06T16:37:58.899Z,32.92
2023-09-06T16:41:14.777Z,32.92
2023-09-06T16:42:43.753Z,32.93
2023-09-06T16:46:33.067Z,32.58
2023-09-06T16:49:31.166Z,32.52
2023-09-06T16:51:28.119Z,32.48
2023-09-06T16:52:57.014Z,32.45
2023-09-06T16:54:28.880Z,32.49
2023-09-06T16:59:30.789Z,32.49
2023-09-06T17:04:51.062Z,32.41
2023-09-06T17:08:19.802Z,32.34
2023-09-06T17:11:42.773Z,32.16
2023-09-06T17:13:11.015Z,32.11
2023-09-06T17:16:02.454Z,32.01
2023-09-06T17:20:44.883Z,31.77
2023-09-06T17:23:07.895Z,31.80
2023-09-06T17:26:58.981Z,31.80
2023-09-06T17:35:00.640Z,31.61
2023-09-06T17:38:21.635Z,31.47
2023-09-06T17:41:02.505Z,31.37
2023-09-06T17:43:05.215Z,31.28
2023-09-06T17:46:26.683Z,31.14
2023-09-06T17:47:56.947Z,31.07
2023-09-06T17:49:53.803Z,30.97
2023-09-06T17:53:18.222Z,30.78
2023-09-06T17:56:17.815Z,30.61
2023-09-06T17:57:45.844Z,30.53
2023-09-06T18:03:40.240Z,30.18
2023-09-06T18:09:51.040Z,29.87
2023-09-06T18:11:22.015Z,29.79
2023-09-06T18:15:46.441Z,29.61
2023-09-06T18:17:17.121Z,29.54
2023-09-06T18:21:28.947Z,29.36
2023-09-06T18:26:19.186Z,29.14
2023-09-06T18:27:49.995Z,29.10
2023-09-06T18:30:46.973Z,28.97
2023-09-06T18:32:17.002Z,28.89
2023-09-06T18:35:13.085Z,28.76
2023-09-06T18:39:26.024Z,28.60
2023-09-06T18:42:17.543Z,28.45
2023-09-06T18:44:49.724Z,28.38
2023-09-06T18:47:52.830Z,28.27
2023-09-06T18:51:11.197Z,28.17
2023-09-06T18:54:44.048Z,28.10
2023-09-06T18:59:57.144Z,27.89
2023-09-06T19:02:28.381Z,27.82
2023-09-06T19:06:01.525Z,27.67
2023-09-06T19:08:59.361Z,27.64
2023-09-06T19:11:03.198Z,27.58
2023-09-06T19:12:32.928Z,27.54
2023-09-06T19:14:04.550Z,27.49
2023-09-06T19:15:34.665Z,27.44
2023-09-06T19:17:09.211Z,27.39
2023-09-06T19:19:36.616Z,27.39
2023-09-06T19:22:41.512Z,27.37
2023-09-06T19:29:58.386Z,27.44
2023-09-06T19:32:58.157Z,27.42
2023-09-06T19:37:18.258Z,27.35
2023-09-06T19:39:19.944Z,27.30
2023-09-06T19:42:08.987Z,27.22
2023-09-06T19:43:41.100Z,27.21
2023-09-06T19:45:10.028Z,27.20
2023-09-06T19:47:09.422Z,27.17
2023-09-06T19:52:25.557Z,27.12
2023-09-06T19:54:27.976Z,27.11
2023-09-06T19:56:53.814Z,27.07
2023-09-06T19:59:41.613Z,27.00
2023-09-06T20:01:13.671Z,26.99
2023-09-06T20:02:40.325Z,26.92
2023-09-06T20:04:38.042Z,26.88
2023-09-06T20:06:09.837Z,26.83
2023-09-06T20:07:36.867Z,26.78
2023-09-06T20:09:08.622Z,26.77
2023-09-06T20:19:01.692Z,26.62
2023-09-06T20:23:17.135Z,26.55
2023-09-06T20:26:05.438Z,26.59
2023-09-06T20:28:07.940Z,26.52
2023-09-06T20:31:36.159Z,26.45
2023-09-06T20:33:53.525Z,26.45
2023-09-06T20:36:52.984Z,26.41
2023-09-06T20:40:04.853Z,26.36
2023-09-06T20:42:22.494Z,26.33
2023-09-06T20:44:13.159Z,26.28
2023-09-06T20:46:12.193Z,26.29
2023-09-06T20:47:22.380Z,26.22
2023-09-06T20:53:27.326Z,26.15
2023-09-06T20:55:27.738Z,26.15
2023-09-06T20:57:55.434Z,26.15
2023-09-06T20:59:25.298Z,26.18
2023-09-06T21:01:25.050Z,26.16
2023-09-06T21:03:36.105Z,26.15
2023-09-06T21:05:16.502Z,26.16
2023-09-06T21:07:04.264Z,26.15
2023-09-06T21:16:37.394Z,26.03
2023-09-06T21:18:14.411Z,26.02
2023-09-06T21:21:32.227Z,25.95
2023-09-06T21:23:53.982Z,25.93
2023-09-06T21:26:40.584Z,25.95
2023-09-06T21:30:40.600Z,25.88
2023-09-06T21:34:15.733Z,25.88
2023-09-06T21:37:18.981Z,25.85
2023-09-06T21:42:46.227Z,25.77
2023-09-06T21:44:15.695Z,25.78
2023-09-06T21:46:15.454Z,25.77
2023-09-06T21:53:30.691Z,25.63
2023-09-06T21:56:36.587Z,25.60
2023-09-06T22:03:03.970Z,25.51
2023-09-06T22:05:06.785Z,25.50
2023-09-06T22:11:18.742Z,25.43
2023-09-06T22:12:54.639Z,25.46
2023-09-06T22:16:31.408Z,25.40
2023-09-06T22:22:43.249Z,25.38
2023-09-06T22:24:12.212Z,25.36
2023-09-06T22:28:21.693Z,25.35
2023-09-06T22:31:30.355Z,25.32
2023-09-06T22:32:59.352Z,25.29
2023-09-06T22:35:52.092Z,25.23
2023-09-06T22:40:40.177Z,25.17
2023-09-06T22:42:10.517Z,25.14
2023-09-06T22:56:17.835Z,24.88
2023-09-06T22:57:47.731Z,24.89
2023-09-06T23:00:05.327Z,24.89
2023-09-06T23:01:35.879Z,24.91
2023-09-06T23:04:23.545Z,24.88
2023-09-06T23:06:12.068Z,24.86
2023-09-06T23:08:42.037Z,24.86
2023-09-06T23:10:12.768Z,24.85
2023-09-06T23:12:30.773Z,24.81
2023-09-06T23:16:28.441Z,24.77
2023-09-06T23:19:24.742Z,24.70
2023-09-06T23:21:44.275Z,24.69
2023-09-06T23:23:13.303Z,24.68
2023-09-06T23:24:42.378Z,24.65
2023-09-06T23:27:13.136Z,24.58
2023-09-06T23:31:13.144Z,24.47
2023-09-06T23:34:02.183Z,24.42
2023-09-06T23:36:30.492Z,24.32
2023-09-06T23:38:00.344Z,24.32
2023-09-06T23:42:04.149Z,24.26
2023-09-06T23:46:12.923Z,24.23
2023-09-06T23:47:43.277Z,24.21
2023-09-06T23:50:41.143Z,24.16
2023-09-06T23:58:15.445Z,24.06
